Česky Dansk Deutsch English Espańol Suomi Français Magyar Italiano Nederlands norsk Polski Portuguęs svenska Türkçe

 

Het Weer

Bremen (Duitsland)

12:50, 18 augustus 2016 (GMT)

NWNNE
WE
SWSSE
Home            
Bremen Lemwerder Diepholz Wunstorf Nordholz Bergen Jever Hamburg-Finkenwerder Bueckeburg Hannover Wittmundhaven Fassberg Celle Hamburg-Fuhlsbuettel Meppen-Mil Hopsten Itzehoe Muenster / Osnabrueck Rheine-Bentlage Nordhorn Guetersloh Braunschweig Groningen Airport Eelde

Om een weerknop op uw website of weblog te plaatsen, copieer onderstaande code en plak die in uw pagina. In het eerste vakje staat HTML-code, in het tweede vakje UBB-code.


Add to Google

Details

Wind speed:2 bf, 4 kn, 2.1 m/s, 4.6 miles/h, 7.4 km/h
Wind direction:W, 280° - NE, 050°
Láthatóság általában:Nagyobb, mint 10000 m, 10 km, 32800 ft, 6.2 miles
Clouds:Szórványos at 4500 ft, 1372 m
Hőmérséklet:22°C, 72°F
Hőérzet:25°C, 77°F
Harmatpont:10°C, 50°F
Légköri nyomás:1010 hPa, 757.6 mmHg, 29.83 inHg, 0.997 atm
Relatív páratartalom:46.4 %
METAR:EDDW 181250Z 36004KT 280V050 9999 SCT045 22/10 Q1010 NOSIG

Snelkoppelingen

Actuele weersinformatie van de hele wereld. Voeg locaties toe met het plus (+) symbool. Deze snelkoppelingen kunnen worden toegevoegd aan Google.

Lid van de Technetium groep

website free tracking
StatCounter NetStat W3C Validator

26-09-2022 11:36:23
astro.technetium.be money.technetium.be phote.technetium.be tafeltennistafel.technetium.be www.ligfiets.net